EGAC Airport Information

Runway Information
Runway 04 Length 6001 ft width 148 ft
Elevation 13 ft Threshold 303 ft Heading 35
Runway 22 Length 6001 ft Width 148 ft
Elevation 12 ft Threshold 0 ft Heading 215
Airport Frequencies
Type APP Name BELFAST AP Frequency 130.85 MHZ
Type ATIS Name ATIS Frequency 136.625 MHZ
Type TWR Name BELFAST TW Frequency 122.825 MHZ
Airport Navaids
Airport Weather Information & NOTAM
ADDS - METARS form results

(0208 UTC 22 March 2019)
Data provider http://aviationweather.gov/metar/data/
 
METAR text: EGAC 220150Z AUTO 19014KT 9999 BKN026/// OVC033/// 11/07 Q1022
Conditions at: EGAC (BELFAST HARBOUR , GB) observed 0150 UTC 22 March 2019
Temperature: 11.0°C (52°F)
Dewpoint: 7.0°C (45°F) [RH = 76%]
Pressure (altimeter): 30.18 inches Hg (1022.0 mb)
Winds: from the S (190 degrees) at 16 MPH (14 knots; 7.2 m/s)
Visibility: 6 or more miles (10+ km)
Ceiling: 2600 feet AGL
Clouds: broken clouds at 2600 feet AGL
overcast cloud deck at 3300 feet AGL
Weather: no significant weather observed at this time

METAR text: EGAC 220120Z AUTO 19014KT 9999 BKN026/// OVC031/// 11/07 Q1022
Conditions at: EGAC (BELFAST HARBOUR , GB) observed 0120 UTC 22 March 2019
Temperature: 11.0°C (52°F)
Dewpoint: 7.0°C (45°F) [RH = 76%]
Pressure (altimeter): 30.18 inches Hg (1022.0 mb)
Winds: from the S (190 degrees) at 16 MPH (14 knots; 7.2 m/s)
Visibility: 6 or more miles (10+ km)
Ceiling: 2600 feet AGL
Clouds: broken clouds at 2600 feet AGL
overcast cloud deck at 3100 feet AGL
Weather: no significant weather observed at this time

Forecast for: AMD
Text: TAF AMD EGAC 212122Z 2121/2122 17012KT 9999 BKN004 OVC008
Forecast period: 2100 to 2200 UTC 21 March 2019
Forecast type: FROM: standard forecast or significant change
Winds: from the S (170 degrees) at 14 MPH (12 knots; 6.2 m/s)
Visibility: 6 or more miles 10+ km)
Ceiling: 400 feet AGL
Clouds: broken clouds at 400 feet AGL
overcast cloud deck at 800 feet AGL
Weather: no significant weather forecast for this period